sensor_id;sensor_type;location;lat;lon;timestamp;P1;durP1;ratioP1;P2;durP2;ratioP2
27412;SDS011;14871;52.702;5.230;2023-05-15T00:00:08;26.42;;;20.00;;
27412;SDS011;14871;52.702;5.230;2023-05-15T00:02:35;26.67;;;20.63;;
27412;SDS011;14871;52.702;5.230;2023-05-15T00:05:02;26.75;;;19.83;;
27412;SDS011;14871;52.702;5.230;2023-05-15T00:07:28;24.70;;;20.88;;
27412;SDS011;14871;52.702;5.230;2023-05-15T00:09:57;31.02;;;21.55;;
27412;SDS011;14871;52.702;5.230;2023-05-15T00:12:33;29.58;;;22.25;;
27412;SDS011;14871;52.702;5.230;2023-05-15T00:14:59;28.27;;;21.35;;
27412;SDS011;14871;52.702;5.230;2023-05-15T00:17:24;29.60;;;21.85;;
27412;SDS011;14871;52.702;5.230;2023-05-15T00:19:50;31.25;;;23.58;;
27412;SDS011;14871;52.702;5.230;2023-05-15T00:22:21;28.98;;;22.45;;
27412;SDS011;14871;52.702;5.230;2023-05-15T00:24:48;31.42;;;23.70;;
27412;SDS011;14871;52.702;5.230;2023-05-15T00:27:13;31.50;;;23.55;;
27412;SDS011;14871;52.702;5.230;2023-05-15T00:29:40;30.77;;;22.90;;
27412;SDS011;14871;52.702;5.230;2023-05-15T00:32:06;28.52;;;22.08;;
27412;SDS011;14871;52.702;5.230;2023-05-15T00:34:32;27.88;;;22.63;;
27412;SDS011;14871;52.702;5.230;2023-05-15T00:36:58;26.95;;;21.45;;
27412;SDS011;14871;52.702;5.230;2023-05-15T00:39:25;29.42;;;21.08;;
27412;SDS011;14871;52.702;5.230;2023-05-15T00:41:51;28.13;;;20.90;;
27412;SDS011;14871;52.702;5.230;2023-05-15T00:44:17;23.98;;;20.08;;
27412;SDS011;14871;52.702;5.230;2023-05-15T00:46:47;23.75;;;19.00;;
27412;SDS011;14871;52.702;5.230;2023-05-15T00:49:14;26.13;;;20.27;;
27412;SDS011;14871;52.702;5.230;2023-05-15T00:51:41;25.13;;;18.45;;
27412;SDS011;14871;52.702;5.230;2023-05-15T00:54:07;23.67;;;18.95;;
27412;SDS011;14871;52.702;5.230;2023-05-15T00:56:34;24.45;;;19.58;;
27412;SDS011;14871;52.702;5.230;2023-05-15T00:59:03;26.17;;;19.00;;
27412;SDS011;14871;52.702;5.230;2023-05-15T01:01:30;28.15;;;19.90;;
27412;SDS011;14871;52.702;5.230;2023-05-15T01:04:01;24.40;;;19.65;;
27412;SDS011;14871;52.702;5.230;2023-05-15T01:06:31;23.85;;;18.33;;
27412;SDS011;14871;52.702;5.230;2023-05-15T01:08:58;22.33;;;18.63;;
27412;SDS011;14871;52.702;5.230;2023-05-15T01:11:30;22.20;;;19.45;;
27412;SDS011;14871;52.702;5.230;2023-05-15T01:14:03;25.40;;;19.35;;
27412;SDS011;14871;52.702;5.230;2023-05-15T01:16:31;25.90;;;19.35;;
27412;SDS011;14871;52.702;5.230;2023-05-15T01:18:57;21.65;;;18.85;;
27412;SDS011;14871;52.702;5.230;2023-05-15T01:26:50;25.65;;;18.98;;
27412;SDS011;14871;52.702;5.230;2023-05-15T01:35:20;21.67;;;18.85;;
27412;SDS011;14871;52.702;5.230;2023-05-15T01:41:03;22.17;;;19.05;;
27412;SDS011;14871;52.702;5.230;2023-05-15T01:43:55;23.92;;;18.77;;
27412;SDS011;14871;52.702;5.230;2023-05-15T01:46:25;24.33;;;19.70;;
27412;SDS011;14871;52.702;5.230;2023-05-15T01:48:54;23.90;;;19.35;;
27412;SDS011;14871;52.702;5.230;2023-05-15T01:51:22;28.25;;;21.20;;
27412;SDS011;14871;52.702;5.230;2023-05-15T01:53:50;26.73;;;20.38;;
27412;SDS011;14871;52.702;5.230;2023-05-15T01:56:18;27.17;;;19.58;;
27412;SDS011;14871;52.702;5.230;2023-05-15T01:58:46;31.48;;;22.10;;
27412;SDS011;14871;52.702;5.230;2023-05-15T02:01:13;24.52;;;19.67;;
27412;SDS011;14871;52.702;5.230;2023-05-15T02:03:40;25.60;;;20.55;;
27412;SDS011;14871;52.702;5.230;2023-05-15T02:06:07;28.88;;;20.90;;
27412;SDS011;14871;52.702;5.230;2023-05-15T02:08:33;27.45;;;20.58;;
27412;SDS011;14871;52.702;5.230;2023-05-15T02:11:01;26.85;;;20.95;;
27412;SDS011;14871;52.702;5.230;2023-05-15T02:13:27;24.83;;;20.85;;
27412;SDS011;14871;52.702;5.230;2023-05-15T02:15:56;27.60;;;21.67;;
27412;SDS011;14871;52.702;5.230;2023-05-15T02:18:22;28.45;;;22.20;;
27412;SDS011;14871;52.702;5.230;2023-05-15T02:20:48;28.42;;;21.20;;
27412;SDS011;14871;52.702;5.230;2023-05-15T02:23:15;28.42;;;20.15;;
27412;SDS011;14871;52.702;5.230;2023-05-15T02:25:44;29.95;;;20.60;;
27412;SDS011;14871;52.702;5.230;2023-05-15T02:28:29;24.70;;;21.88;;
27412;SDS011;14871;52.702;5.230;2023-05-15T02:31:22;26.23;;;21.55;;
27412;SDS011;14871;52.702;5.230;2023-05-15T02:36:51;32.78;;;22.98;;
27412;SDS011;14871;52.702;5.230;2023-05-15T02:39:19;30.98;;;22.48;;
27412;SDS011;14871;52.702;5.230;2023-05-15T02:41:47;27.77;;;22.00;;
27412;SDS011;14871;52.702;5.230;2023-05-15T02:44:14;32.72;;;23.02;;
27412;SDS011;14871;52.702;5.230;2023-05-15T02:46:42;34.65;;;25.27;;
27412;SDS011;14871;52.702;5.230;2023-05-15T02:49:10;26.98;;;22.10;;
27412;SDS011;14871;52.702;5.230;2023-05-15T02:51:36;30.38;;;23.83;;
27412;SDS011;14871;52.702;5.230;2023-05-15T02:54:02;31.52;;;24.40;;
27412;SDS011;14871;52.702;5.230;2023-05-15T02:56:29;32.17;;;24.52;;
27412;SDS011;14871;52.702;5.230;2023-05-15T02:58:54;29.02;;;23.60;;
27412;SDS011;14871;52.702;5.230;2023-05-15T03:01:20;31.83;;;24.35;;
27412;SDS011;14871;52.702;5.230;2023-05-15T03:03:47;32.03;;;24.80;;
27412;SDS011;14871;52.702;5.230;2023-05-15T03:06:13;34.65;;;26.00;;
27412;SDS011;14871;52.702;5.230;2023-05-15T03:08:39;37.05;;;26.38;;
27412;SDS011;14871;52.702;5.230;2023-05-15T03:11:05;35.90;;;25.75;;
27412;SDS011;14871;52.702;5.230;2023-05-15T03:13:33;35.15;;;25.73;;
27412;SDS011;14871;52.702;5.230;2023-05-15T03:15:59;33.95;;;24.92;;
27412;SDS011;14871;52.702;5.230;2023-05-15T03:18:25;33.30;;;24.85;;
27412;SDS011;14871;52.702;5.230;2023-05-15T03:20:51;29.15;;;24.60;;
27412;SDS011;14871;52.702;5.230;2023-05-15T03:23:17;30.38;;;24.67;;
27412;SDS011;14871;52.702;5.230;2023-05-15T03:25:43;32.15;;;24.42;;
27412;SDS011;14871;52.702;5.230;2023-05-15T03:28:09;30.40;;;24.67;;
27412;SDS011;14871;52.702;5.230;2023-05-15T03:30:35;34.22;;;25.35;;
27412;SDS011;14871;52.702;5.230;2023-05-15T03:33:01;29.13;;;24.25;;
27412;SDS011;14871;52.702;5.230;2023-05-15T03:35:30;31.92;;;24.10;;
27412;SDS011;14871;52.702;5.230;2023-05-15T03:37:56;33.67;;;25.80;;
27412;SDS011;14871;52.702;5.230;2023-05-15T03:40:22;34.97;;;25.92;;
27412;SDS011;14871;52.702;5.230;2023-05-15T03:42:48;32.97;;;25.42;;
27412;SDS011;14871;52.702;5.230;2023-05-15T03:45:17;35.47;;;26.15;;
27412;SDS011;14871;52.702;5.230;2023-05-15T03:47:44;36.63;;;25.70;;
27412;SDS011;14871;52.702;5.230;2023-05-15T03:50:10;34.42;;;26.92;;
27412;SDS011;14871;52.702;5.230;2023-05-15T03:52:35;34.33;;;26.05;;
27412;SDS011;14871;52.702;5.230;2023-05-15T03:55:01;36.90;;;27.23;;
27412;SDS011;14871;52.702;5.230;2023-05-15T03:57:27;38.03;;;27.85;;
27412;SDS011;14871;52.702;5.230;2023-05-15T03:59:54;33.97;;;27.35;;
27412;SDS011;14871;52.702;5.230;2023-05-15T04:02:19;34.05;;;26.50;;
27412;SDS011;14871;52.702;5.230;2023-05-15T04:04:45;40.33;;;29.48;;
27412;SDS011;14871;52.702;5.230;2023-05-15T04:07:11;40.03;;;30.15;;
27412;SDS011;14871;52.702;5.230;2023-05-15T04:09:37;39.35;;;29.05;;
27412;SDS011;14871;52.702;5.230;2023-05-15T04:12:03;38.20;;;29.60;;
27412;SDS011;14871;52.702;5.230;2023-05-15T04:14:29;37.60;;;29.45;;
27412;SDS011;14871;52.702;5.230;2023-05-15T04:16:56;38.67;;;28.20;;
27412;SDS011;14871;52.702;5.230;2023-05-15T04:19:21;35.42;;;28.65;;
27412;SDS011;14871;52.702;5.230;2023-05-15T04:21:47;33.88;;;26.83;;
27412;SDS011;14871;52.702;5.230;2023-05-15T04:24:13;36.10;;;28.27;;
27412;SDS011;14871;52.702;5.230;2023-05-15T04:26:39;38.72;;;28.02;;
27412;SDS011;14871;52.702;5.230;2023-05-15T04:29:05;37.30;;;29.55;;
27412;SDS011;14871;52.702;5.230;2023-05-15T04:31:31;40.97;;;29.48;;
27412;SDS011;14871;52.702;5.230;2023-05-15T04:33:59;35.92;;;29.73;;
27412;SDS011;14871;52.702;5.230;2023-05-15T04:36:25;38.60;;;31.10;;
27412;SDS011;14871;52.702;5.230;2023-05-15T04:38:51;41.03;;;32.03;;
27412;SDS011;14871;52.702;5.230;2023-05-15T04:41:17;39.20;;;31.60;;
27412;SDS011;14871;52.702;5.230;2023-05-15T04:43:42;37.35;;;31.33;;
27412;SDS011;14871;52.702;5.230;2023-05-15T04:46:08;46.78;;;32.30;;
27412;SDS011;14871;52.702;5.230;2023-05-15T04:48:34;42.10;;;32.30;;
27412;SDS011;14871;52.702;5.230;2023-05-15T04:51:00;43.17;;;33.13;;
27412;SDS011;14871;52.702;5.230;2023-05-15T04:53:26;42.40;;;32.88;;
27412;SDS011;14871;52.702;5.230;2023-05-15T04:55:52;46.10;;;35.10;;
27412;SDS011;14871;52.702;5.230;2023-05-15T04:58:18;44.08;;;34.97;;
27412;SDS011;14871;52.702;5.230;2023-05-15T05:00:43;45.85;;;35.15;;
27412;SDS011;14871;52.702;5.230;2023-05-15T05:03:09;45.70;;;35.67;;
27412;SDS011;14871;52.702;5.230;2023-05-15T05:05:35;44.20;;;35.15;;
27412;SDS011;14871;52.702;5.230;2023-05-15T05:08:01;41.10;;;32.00;;
27412;SDS011;14871;52.702;5.230;2023-05-15T05:10:27;38.80;;;32.20;;
27412;SDS011;14871;52.702;5.230;2023-05-15T05:12:53;44.03;;;34.50;;
27412;SDS011;14871;52.702;5.230;2023-05-15T05:15:19;40.58;;;31.75;;
27412;SDS011;14871;52.702;5.230;2023-05-15T05:17:45;39.33;;;32.17;;
27412;SDS011;14871;52.702;5.230;2023-05-15T05:20:11;38.58;;;31.58;;
27412;SDS011;14871;52.702;5.230;2023-05-15T05:22:37;38.20;;;32.63;;
27412;SDS011;14871;52.702;5.230;2023-05-15T05:25:05;36.97;;;30.80;;
27412;SDS011;14871;52.702;5.230;2023-05-15T05:27:31;34.47;;;30.48;;
27412;SDS011;14871;52.702;5.230;2023-05-15T05:29:57;30.63;;;27.40;;
27412;SDS011;14871;52.702;5.230;2023-05-15T05:32:23;31.83;;;27.40;;
27412;SDS011;14871;52.702;5.230;2023-05-15T05:34:49;31.90;;;28.50;;
27412;SDS011;14871;52.702;5.230;2023-05-15T05:37:17;33.70;;;29.33;;
27412;SDS011;14871;52.702;5.230;2023-05-15T05:39:44;34.38;;;29.75;;
27412;SDS011;14871;52.702;5.230;2023-05-15T05:42:11;33.58;;;29.00;;
27412;SDS011;14871;52.702;5.230;2023-05-15T05:44:37;35.10;;;29.85;;
27412;SDS011;14871;52.702;5.230;2023-05-15T05:47:03;34.05;;;30.48;;
27412;SDS011;14871;52.702;5.230;2023-05-15T05:49:29;34.47;;;30.73;;
27412;SDS011;14871;52.702;5.230;2023-05-15T05:51:54;32.70;;;29.23;;
27412;SDS011;14871;52.702;5.230;2023-05-15T05:54:20;33.58;;;30.02;;
27412;SDS011;14871;52.702;5.230;2023-05-15T05:56:46;38.08;;;30.67;;
27412;SDS011;14871;52.702;5.230;2023-05-15T05:59:12;35.75;;;30.33;;
27412;SDS011;14871;52.702;5.230;2023-05-15T06:01:39;32.63;;;28.15;;
27412;SDS011;14871;52.702;5.230;2023-05-15T06:04:04;32.97;;;28.80;;
27412;SDS011;14871;52.702;5.230;2023-05-15T06:06:30;31.40;;;27.88;;
27412;SDS011;14871;52.702;5.230;2023-05-15T06:08:56;31.65;;;27.08;;
27412;SDS011;14871;52.702;5.230;2023-05-15T06:11:22;30.30;;;26.80;;
27412;SDS011;14871;52.702;5.230;2023-05-15T06:13:48;29.27;;;25.80;;
27412;SDS011;14871;52.702;5.230;2023-05-15T06:16:16;28.98;;;23.73;;
27412;SDS011;14871;52.702;5.230;2023-05-15T06:18:42;27.58;;;24.75;;
27412;SDS011;14871;52.702;5.230;2023-05-15T06:21:08;28.58;;;24.77;;
27412;SDS011;14871;52.702;5.230;2023-05-15T06:23:34;27.55;;;23.50;;
27412;SDS011;14871;52.702;5.230;2023-05-15T06:26:02;27.65;;;23.45;;
27412;SDS011;14871;52.702;5.230;2023-05-15T06:28:28;26.30;;;22.50;;
27412;SDS011;14871;52.702;5.230;2023-05-15T06:30:54;25.92;;;20.92;;
27412;SDS011;14871;52.702;5.230;2023-05-15T06:33:20;24.00;;;21.25;;
27412;SDS011;14871;52.702;5.230;2023-05-15T06:35:46;24.50;;;21.50;;
27412;SDS011;14871;52.702;5.230;2023-05-15T06:38:12;30.45;;;21.42;;
27412;SDS011;14871;52.702;5.230;2023-05-15T06:40:38;22.33;;;20.02;;
27412;SDS011;14871;52.702;5.230;2023-05-15T06:43:04;23.55;;;20.40;;
27412;SDS011;14871;52.702;5.230;2023-05-15T06:45:30;23.27;;;20.77;;
27412;SDS011;14871;52.702;5.230;2023-05-15T06:47:56;23.00;;;20.48;;
27412;SDS011;14871;52.702;5.230;2023-05-15T06:50:21;22.90;;;20.42;;
27412;SDS011;14871;52.702;5.230;2023-05-15T06:52:48;22.70;;;19.98;;
27412;SDS011;14871;52.702;5.230;2023-05-15T06:55:13;22.98;;;20.67;;
27412;SDS011;14871;52.702;5.230;2023-05-15T06:57:39;24.55;;;19.58;;
27412;SDS011;14871;52.702;5.230;2023-05-15T07:00:05;21.10;;;18.85;;
27412;SDS011;14871;52.702;5.230;2023-05-15T07:02:31;22.85;;;19.88;;
27412;SDS011;14871;52.702;5.230;2023-05-15T07:04:57;20.95;;;18.85;;
27412;SDS011;14871;52.702;5.230;2023-05-15T07:07:22;20.30;;;17.55;;
27412;SDS011;14871;52.702;5.230;2023-05-15T07:09:49;21.85;;;18.35;;
27412;SDS011;14871;52.702;5.230;2023-05-15T07:12:15;20.70;;;18.15;;
27412;SDS011;14871;52.702;5.230;2023-05-15T07:14:41;23.67;;;18.67;;
27412;SDS011;14871;52.702;5.230;2023-05-15T07:17:06;20.27;;;18.02;;
27412;SDS011;14871;52.702;5.230;2023-05-15T07:19:32;21.23;;;18.67;;
27412;SDS011;14871;52.702;5.230;2023-05-15T07:21:58;19.80;;;17.35;;
27412;SDS011;14871;52.702;5.230;2023-05-15T07:24:24;19.48;;;17.35;;
27412;SDS011;14871;52.702;5.230;2023-05-15T07:26:50;20.77;;;17.50;;
27412;SDS011;14871;52.702;5.230;2023-05-15T07:29:16;19.50;;;17.20;;
27412;SDS011;14871;52.702;5.230;2023-05-15T07:31:42;19.20;;;16.73;;
27412;SDS011;14871;52.702;5.230;2023-05-15T07:34:08;22.35;;;17.95;;
27412;SDS011;14871;52.702;5.230;2023-05-15T07:36:35;21.20;;;17.33;;
27412;SDS011;14871;52.702;5.230;2023-05-15T07:39:01;22.20;;;18.27;;
27412;SDS011;14871;52.702;5.230;2023-05-15T07:41:27;22.55;;;18.20;;
27412;SDS011;14871;52.702;5.230;2023-05-15T07:43:54;20.02;;;18.02;;
27412;SDS011;14871;52.702;5.230;2023-05-15T07:46:20;21.38;;;18.33;;
27412;SDS011;14871;52.702;5.230;2023-05-15T07:48:46;20.88;;;18.63;;
27412;SDS011;14871;52.702;5.230;2023-05-15T07:51:12;23.30;;;18.70;;
27412;SDS011;14871;52.702;5.230;2023-05-15T07:53:38;19.27;;;17.27;;
27412;SDS011;14871;52.702;5.230;2023-05-15T07:56:04;20.73;;;18.63;;
27412;SDS011;14871;52.702;5.230;2023-05-15T07:58:30;20.70;;;18.55;;
27412;SDS011;14871;52.702;5.230;2023-05-15T08:00:55;20.75;;;17.67;;
27412;SDS011;14871;52.702;5.230;2023-05-15T08:03:21;22.20;;;19.90;;
27412;SDS011;14871;52.702;5.230;2023-05-15T08:05:47;21.77;;;19.38;;
27412;SDS011;14871;52.702;5.230;2023-05-15T08:08:13;23.58;;;19.40;;
27412;SDS011;14871;52.702;5.230;2023-05-15T08:10:39;22.05;;;19.75;;
27412;SDS011;14871;52.702;5.230;2023-05-15T08:13:05;21.58;;;19.05;;
27412;SDS011;14871;52.702;5.230;2023-05-15T08:15:31;22.65;;;20.20;;
27412;SDS011;14871;52.702;5.230;2023-05-15T08:17:57;24.13;;;21.65;;
27412;SDS011;14871;52.702;5.230;2023-05-15T08:20:23;24.05;;;21.45;;
27412;SDS011;14871;52.702;5.230;2023-05-15T08:22:49;23.75;;;20.48;;
27412;SDS011;14871;52.702;5.230;2023-05-15T08:25:15;21.73;;;19.25;;
27412;SDS011;14871;52.702;5.230;2023-05-15T08:27:41;21.83;;;19.30;;
27412;SDS011;14871;52.702;5.230;2023-05-15T08:30:07;21.92;;;19.33;;
27412;SDS011;14871;52.702;5.230;2023-05-15T08:32:33;21.40;;;19.10;;
27412;SDS011;14871;52.702;5.230;2023-05-15T08:34:58;21.88;;;18.00;;
27412;SDS011;14871;52.702;5.230;2023-05-15T08:37:24;22.90;;;18.52;;
27412;SDS011;14871;52.702;5.230;2023-05-15T08:39:50;21.75;;;18.67;;
27412;SDS011;14871;52.702;5.230;2023-05-15T08:42:51;21.27;;;17.02;;
27412;SDS011;14871;52.702;5.230;2023-05-15T08:45:11;21.42;;;18.77;;
27412;SDS011;14871;52.702;5.230;2023-05-15T08:47:39;21.90;;;17.88;;
27412;SDS011;14871;52.702;5.230;2023-05-15T08:50:06;23.70;;;20.13;;
27412;SDS011;14871;52.702;5.230;2023-05-15T08:52:39;22.88;;;20.38;;
27412;SDS011;14871;52.702;5.230;2023-05-15T08:55:10;25.55;;;20.95;;
27412;SDS011;14871;52.702;5.230;2023-05-15T08:57:36;26.33;;;20.95;;
27412;SDS011;14871;52.702;5.230;2023-05-15T09:00:03;27.80;;;20.83;;
27412;SDS011;14871;52.702;5.230;2023-05-15T09:02:32;23.67;;;19.20;;
27412;SDS011;14871;52.702;5.230;2023-05-15T09:05:01;25.95;;;21.65;;
27412;SDS011;14871;52.702;5.230;2023-05-15T09:07:28;29.05;;;22.65;;
27412;SDS011;14871;52.702;5.230;2023-05-15T09:09:55;28.08;;;21.85;;
27412;SDS011;14871;52.702;5.230;2023-05-15T09:12:23;26.13;;;21.58;;
27412;SDS011;14871;52.702;5.230;2023-05-15T09:14:50;29.67;;;22.35;;
27412;SDS011;14871;52.702;5.230;2023-05-15T09:17:15;29.00;;;22.80;;
27412;SDS011;14871;52.702;5.230;2023-05-15T09:19:42;31.13;;;23.25;;
27412;SDS011;14871;52.702;5.230;2023-05-15T09:24:42;31.13;;;23.03;;
27412;SDS011;14871;52.702;5.230;2023-05-15T09:27:09;29.02;;;22.75;;
27412;SDS011;14871;52.702;5.230;2023-05-15T09:29:35;32.05;;;24.05;;
27412;SDS011;14871;52.702;5.230;2023-05-15T09:32:06;29.88;;;21.83;;
27412;SDS011;14871;52.702;5.230;2023-05-15T09:34:43;31.45;;;23.55;;
27412;SDS011;14871;52.702;5.230;2023-05-15T09:37:12;31.38;;;23.55;;
27412;SDS011;14871;52.702;5.230;2023-05-15T09:42:32;30.60;;;22.33;;
27412;SDS011;14871;52.702;5.230;2023-05-15T09:44:58;30.77;;;23.25;;
27412;SDS011;14871;52.702;5.230;2023-05-15T09:47:24;32.30;;;23.13;;
27412;SDS011;14871;52.702;5.230;2023-05-15T09:49:50;35.15;;;25.05;;
27412;SDS011;14871;52.702;5.230;2023-05-15T09:52:17;34.17;;;24.17;;
27412;SDS011;14871;52.702;5.230;2023-05-15T09:54:43;33.95;;;24.55;;
27412;SDS011;14871;52.702;5.230;2023-05-15T09:57:11;36.33;;;26.67;;
27412;SDS011;14871;52.702;5.230;2023-05-15T09:59:45;37.90;;;26.77;;
27412;SDS011;14871;52.702;5.230;2023-05-15T10:02:24;36.92;;;26.67;;
27412;SDS011;14871;52.702;5.230;2023-05-15T10:04:59;40.00;;;27.50;;
27412;SDS011;14871;52.702;5.230;2023-05-15T10:07:31;38.92;;;26.95;;
27412;SDS011;14871;52.702;5.230;2023-05-15T10:09:58;41.08;;;27.45;;
27412;SDS011;14871;52.702;5.230;2023-05-15T10:12:29;41.55;;;28.05;;
27412;SDS011;14871;52.702;5.230;2023-05-15T10:14:57;42.53;;;30.25;;
27412;SDS011;14871;52.702;5.230;2023-05-15T10:17:24;46.38;;;30.77;;
27412;SDS011;14871;52.702;5.230;2023-05-15T10:19:52;46.60;;;32.25;;
27412;SDS011;14871;52.702;5.230;2023-05-15T10:22:22;48.50;;;33.50;;
27412;SDS011;14871;52.702;5.230;2023-05-15T10:24:51;49.50;;;35.75;;
27412;SDS011;14871;52.702;5.230;2023-05-15T10:27:26;51.08;;;36.00;;
27412;SDS011;14871;52.702;5.230;2023-05-15T10:29:54;56.33;;;39.65;;
27412;SDS011;14871;52.702;5.230;2023-05-15T10:32:22;55.00;;;38.05;;
27412;SDS011;14871;52.702;5.230;2023-05-15T10:34:49;45.90;;;34.65;;
27412;SDS011;14871;52.702;5.230;2023-05-15T10:37:16;40.13;;;31.08;;
27412;SDS011;14871;52.702;5.230;2023-05-15T10:39:43;39.75;;;32.88;;
27412;SDS011;14871;52.702;5.230;2023-05-15T10:42:10;41.92;;;33.97;;
27412;SDS011;14871;52.702;5.230;2023-05-15T10:44:37;43.25;;;34.30;;
27412;SDS011;14871;52.702;5.230;2023-05-15T10:47:06;41.72;;;33.15;;
27412;SDS011;14871;52.702;5.230;2023-05-15T10:49:32;41.58;;;33.13;;
27412;SDS011;14871;52.702;5.230;2023-05-15T10:52:03;45.05;;;33.60;;
27412;SDS011;14871;52.702;5.230;2023-05-15T10:54:29;39.00;;;32.15;;
27412;SDS011;14871;52.702;5.230;2023-05-15T10:56:54;39.60;;;31.17;;
27412;SDS011;14871;52.702;5.230;2023-05-15T10:59:21;38.85;;;31.45;;
27412;SDS011;14871;52.702;5.230;2023-05-15T11:01:55;39.22;;;31.27;;
27412;SDS011;14871;52.702;5.230;2023-05-15T11:04:22;38.95;;;31.52;;
27412;SDS011;14871;52.702;5.230;2023-05-15T11:06:48;37.40;;;30.95;;
27412;SDS011;14871;52.702;5.230;2023-05-15T11:14:20;39.08;;;31.13;;
27412;SDS011;14871;52.702;5.230;2023-05-15T11:19:22;38.67;;;30.38;;
27412;SDS011;14871;52.702;5.230;2023-05-15T11:24:31;34.75;;;27.48;;
27412;SDS011;14871;52.702;5.230;2023-05-15T11:27:16;33.85;;;27.23;;
27412;SDS011;14871;52.702;5.230;2023-05-15T11:30:05;34.22;;;25.67;;
27412;SDS011;14871;52.702;5.230;2023-05-15T11:35:12;29.20;;;24.85;;
27412;SDS011;14871;52.702;5.230;2023-05-15T11:37:46;30.45;;;25.13;;
27412;SDS011;14871;52.702;5.230;2023-05-15T11:40:24;33.97;;;25.33;;
27412;SDS011;14871;52.702;5.230;2023-05-15T11:43:05;30.85;;;23.60;;
27412;SDS011;14871;52.702;5.230;2023-05-15T11:45:36;29.10;;;24.25;;
27412;SDS011;14871;52.702;5.230;2023-05-15T11:48:06;31.25;;;24.15;;
27412;SDS011;14871;52.702;5.230;2023-05-15T11:50:36;29.95;;;23.05;;
27412;SDS011;14871;52.702;5.230;2023-05-15T11:53:06;28.83;;;23.50;;
27412;SDS011;14871;52.702;5.230;2023-05-15T11:55:34;29.17;;;24.10;;
27412;SDS011;14871;52.702;5.230;2023-05-15T11:58:09;29.17;;;24.10;;
27412;SDS011;14871;52.702;5.230;2023-05-15T12:00:36;30.65;;;23.77;;
27412;SDS011;14871;52.702;5.230;2023-05-15T12:03:02;30.67;;;23.60;;
27412;SDS011;14871;52.702;5.230;2023-05-15T12:05:27;27.33;;;22.25;;
27412;SDS011;14871;52.702;5.230;2023-05-15T12:07:55;31.42;;;23.48;;
27412;SDS011;14871;52.702;5.230;2023-05-15T12:10:21;30.35;;;24.17;;
27412;SDS011;14871;52.702;5.230;2023-05-15T12:12:47;29.17;;;23.17;;
27412;SDS011;14871;52.702;5.230;2023-05-15T12:15:14;27.65;;;22.52;;
27412;SDS011;14871;52.702;5.230;2023-05-15T12:17:41;29.42;;;22.25;;
27412;SDS011;14871;52.702;5.230;2023-05-15T12:20:14;29.90;;;21.15;;
27412;SDS011;14871;52.702;5.230;2023-05-15T12:22:41;28.05;;;22.98;;
27412;SDS011;14871;52.702;5.230;2023-05-15T12:25:07;25.63;;;21.65;;
27412;SDS011;14871;52.702;5.230;2023-05-15T12:27:35;25.15;;;20.27;;
27412;SDS011;14871;52.702;5.230;2023-05-15T12:30:02;25.85;;;20.92;;
27412;SDS011;14871;52.702;5.230;2023-05-15T12:32:35;26.52;;;22.55;;
27412;SDS011;14871;52.702;5.230;2023-05-15T12:35:02;31.55;;;21.90;;
27412;SDS011;14871;52.702;5.230;2023-05-15T12:37:33;27.30;;;24.35;;
27412;SDS011;14871;52.702;5.230;2023-05-15T12:40:01;31.48;;;24.15;;
27412;SDS011;14871;52.702;5.230;2023-05-15T12:42:42;28.75;;;23.10;;
27412;SDS011;14871;52.702;5.230;2023-05-15T12:45:16;24.75;;;21.67;;
27412;SDS011;14871;52.702;5.230;2023-05-15T12:47:43;24.10;;;20.90;;
27412;SDS011;14871;52.702;5.230;2023-05-15T12:50:14;22.17;;;19.83;;
27412;SDS011;14871;52.702;5.230;2023-05-15T12:52:54;16.93;;;14.90;;
27412;SDS011;14871;52.702;5.230;2023-05-15T12:55:22;24.40;;;20.50;;
27412;SDS011;14871;52.702;5.230;2023-05-15T12:57:55;25.30;;;20.77;;
27412;SDS011;14871;52.702;5.230;2023-05-15T13:00:22;21.20;;;18.92;;
27412;SDS011;14871;52.702;5.230;2023-05-15T13:02:52;22.60;;;18.63;;
27412;SDS011;14871;52.702;5.230;2023-05-15T13:05:23;19.88;;;17.92;;
27412;SDS011;14871;52.702;5.230;2023-05-15T13:07:50;23.52;;;19.27;;
27412;SDS011;14871;52.702;5.230;2023-05-15T13:10:22;22.70;;;17.95;;
27412;SDS011;14871;52.702;5.230;2023-05-15T13:12:49;25.48;;;19.85;;
27412;SDS011;14871;52.702;5.230;2023-05-15T13:15:31;20.77;;;17.92;;
27412;SDS011;14871;52.702;5.230;2023-05-15T13:18:05;22.52;;;17.80;;
27412;SDS011;14871;52.702;5.230;2023-05-15T13:20:36;21.83;;;18.27;;
27412;SDS011;14871;52.702;5.230;2023-05-15T13:23:03;21.58;;;17.58;;
27412;SDS011;14871;52.702;5.230;2023-05-15T13:25:29;23.17;;;19.63;;
27412;SDS011;14871;52.702;5.230;2023-05-15T13:27:56;24.58;;;20.40;;
27412;SDS011;14871;52.702;5.230;2023-05-15T13:30:23;28.17;;;20.58;;
27412;SDS011;14871;52.702;5.230;2023-05-15T13:32:50;25.00;;;20.20;;
27412;SDS011;14871;52.702;5.230;2023-05-15T13:35:16;25.88;;;20.23;;
27412;SDS011;14871;52.702;5.230;2023-05-15T13:37:41;21.10;;;18.30;;
27412;SDS011;14871;52.702;5.230;2023-05-15T13:40:08;20.83;;;18.42;;
27412;SDS011;14871;52.702;5.230;2023-05-15T13:42:41;25.40;;;19.65;;
27412;SDS011;14871;52.702;5.230;2023-05-15T13:45:10;27.02;;;20.92;;
27412;SDS011;14871;52.702;5.230;2023-05-15T13:47:37;23.77;;;20.15;;
27412;SDS011;14871;52.702;5.230;2023-05-15T13:50:07;29.50;;;21.42;;
27412;SDS011;14871;52.702;5.230;2023-05-15T13:52:35;25.88;;;20.67;;
27412;SDS011;14871;52.702;5.230;2023-05-15T13:55:01;27.35;;;21.70;;
27412;SDS011;14871;52.702;5.230;2023-05-15T13:57:28;25.83;;;20.75;;
27412;SDS011;14871;52.702;5.230;2023-05-15T13:59:54;24.73;;;18.20;;
27412;SDS011;14871;52.702;5.230;2023-05-15T14:02:23;21.85;;;16.50;;
27412;SDS011;14871;52.702;5.230;2023-05-15T14:04:50;25.25;;;17.20;;
27412;SDS011;14871;52.702;5.230;2023-05-15T14:07:17;25.27;;;17.42;;
27412;SDS011;14871;52.702;5.230;2023-05-15T14:09:43;21.67;;;15.65;;
27412;SDS011;14871;52.702;5.230;2023-05-15T14:12:10;21.85;;;15.10;;
27412;SDS011;14871;52.702;5.230;2023-05-15T14:14:36;24.98;;;16.05;;
27412;SDS011;14871;52.702;5.230;2023-05-15T14:17:01;21.70;;;16.20;;
27412;SDS011;14871;52.702;5.230;2023-05-15T14:19:27;17.42;;;12.82;;
27412;SDS011;14871;52.702;5.230;2023-05-15T14:21:56;16.95;;;10.88;;
27412;SDS011;14871;52.702;5.230;2023-05-15T14:24:22;15.05;;;10.13;;
27412;SDS011;14871;52.702;5.230;2023-05-15T14:26:47;16.27;;;10.30;;
27412;SDS011;14871;52.702;5.230;2023-05-15T14:29:13;12.75;;;9.30;;
27412;SDS011;14871;52.702;5.230;2023-05-15T14:31:39;14.10;;;10.38;;
27412;SDS011;14871;52.702;5.230;2023-05-15T14:34:07;14.18;;;9.35;;
27412;SDS011;14871;52.702;5.230;2023-05-15T14:36:33;11.52;;;8.38;;
27412;SDS011;14871;52.702;5.230;2023-05-15T14:38:58;11.82;;;8.73;;
27412;SDS011;14871;52.702;5.230;2023-05-15T14:41:26;12.38;;;8.43;;
27412;SDS011;14871;52.702;5.230;2023-05-15T14:43:52;15.55;;;8.57;;
27412;SDS011;14871;52.702;5.230;2023-05-15T14:46:18;10.18;;;8.02;;
27412;SDS011;14871;52.702;5.230;2023-05-15T14:48:44;12.63;;;8.73;;
27412;SDS011;14871;52.702;5.230;2023-05-15T14:51:09;11.60;;;7.78;;
27412;SDS011;14871;52.702;5.230;2023-05-15T14:53:35;12.80;;;7.88;;
27412;SDS011;14871;52.702;5.230;2023-05-15T14:56:01;15.38;;;8.30;;
27412;SDS011;14871;52.702;5.230;2023-05-15T14:58:27;13.68;;;7.38;;